Schillplate — ZDJJ8 — position and weather

sailwx.info

Track history (hours):
 
Tides and Currents Weather Stations Pressure Air Temp Water Temp Dewpoint Dewpoint Depression Visibility Wind Speed Wind Dir Waves Ship Positions

Schillplate

Last reported at 2014-Aug-21 19:29 UTC. Time now 2014-Aug-21 20:05 UTC.
Position N 57°03' E 010°03'.

Length 86 m; draft 3.9 m.

Type: Cargo ship. MMSI: 236111603.

Date/timePositionNaut miles runAvg speedWind from/ knotsBaromVisibWave heightAir tempDewpointWater temp
2014-Aug-21 19:29N 57°03' E 010°03'0 0.0
2014-Aug-21 18:32N 57°03' E 010°03'0 0.0
2014-Aug-21 17:32N 57°03' E 010°03'0 0.0
2014-Aug-21 16:34N 57°03' E 010°03'5 5.3
2014-Aug-21 15:33N 57°00' E 010°10'168 7.8
2014-Aug-20 18:11N 54°14' E 009°36'6 8.3
2014-Aug-20 17:24N 54°10' E 009°27'6 7.5
2014-Aug-20 16:33N 54°06' E 009°20'8 8.4
2014-Aug-20 15:33N 53°58' E 009°15'5 4.7
2014-Aug-20 14:33N 53°54' E 009°10'0 0.0
2014-Aug-20 13:33N 53°54' E 009°10'0 0.0
2014-Aug-20 12:33N 53°54' E 009°09'0 0.0
2014-Aug-20 11:30N 53°54' E 009°10'0 0.0
2014-Aug-20 10:33N 53°54' E 009°09'0 0.0
2014-Aug-20 09:33N 53°54' E 009°09'0 0.0
2014-Aug-20 08:33N 53°54' E 009°09'0 0.0
2014-Aug-20 07:33N 53°54' E 009°10'0 0.0
2014-Aug-20 06:33N 53°54' E 009°09'0 0.0
2014-Aug-20 05:33N 53°54' E 009°09'0 0.0
2014-Aug-20 04:33N 53°54' E 009°10'0 0.0
2014-Aug-20 03:33N 53°54' E 009°09'0 0.0
2014-Aug-20 02:33N 53°54' E 009°09'0 0.0
2014-Aug-20 01:30N 53°54' E 009°10'0 0.0
2014-Aug-20 00:30N 53°54' E 009°10'0 0.0
2014-Aug-19 23:30N 53°54' E 009°10'0 0.0
2014-Aug-19 22:30N 53°54' E 009°10'0 0.0
2014-Aug-19 21:33N 53°54' E 009°10'0 0.0
2014-Aug-19 20:33N 53°54' E 009°10'0 0.0
2014-Aug-19 19:33N 53°54' E 009°10'0 0.0
2014-Aug-19 18:33N 53°54' E 009°10'0 0.0
2014-Aug-19 17:33N 53°54' E 009°09'0 0.0
2014-Aug-19 16:33N 53°54' E 009°10'1 0.8
2014-Aug-19 15:33N 53°54' E 009°09'2 2.4
2014-Aug-19 14:33N 53°53' E 009°05'2 2.1
2014-Aug-19 13:34N 53°52' E 009°02'7 6.7
2014-Aug-19 12:33N 53°50' E 008°51'6 6.1
2014-Aug-19 11:33N 53°53' E 008°42'6 6.2
2014-Aug-19 10:32N 53°58' E 008°34'3 2.9
2014-Aug-19 09:33N 53°58' E 008°29'0 0.0
2014-Aug-19 08:33N 53°58' E 008°29'0 0.1
2014-Aug-19 07:30N 53°58' E 008°29'0 0.1
2014-Aug-19 06:33N 53°58' E 008°30'0 0.0
2014-Aug-19 05:33N 53°58' E 008°30'0 0.0
2014-Aug-19 04:18N 53°58' E 008°30'0 0.0
2014-Aug-19 03:27N 53°58' E 008°30'0 0.0
2014-Aug-19 02:21N 53°58' E 008°30'2 2.2
2014-Aug-19 01:33N 53°59' E 008°27'7 7.3
2014-Aug-19 00:32N 54°04' E 008°18'5 5.2
2014-Aug-18 23:31N 54°09' E 008°21'0 0.1
2014-Aug-18 22:27N 54°09' E 008°21'6 6.7
2014-Aug-18 21:33N 54°14' E 008°25'0 0.2
2014-Aug-18 20:33N 54°15' E 008°25'3 2.8
2014-Aug-18 19:33N 54°17' E 008°27'7 7.1
2014-Aug-18 18:33N 54°24' E 008°31'  
2014-Aug-14 10:33N 54°26' E 008°37'1211.5
2014-Aug-14 09:33N 54°18' E 008°23'1211.8
2014-Aug-14 08:33N 54°07' E 008°17'10 9.8
2014-Aug-14 07:33N 53°59' E 008°27'1313.5
2014-Aug-14 06:34N 53°51' E 008°45'1313.4
2014-Aug-14 05:33N 53°53' E 009°08'1 0.8
2014-Aug-14 04:26N 53°53' E 009°09'0 0.0
2014-Aug-14 03:32N 53°53' E 009°09'0 0.0
2014-Aug-14 02:29N 53°53' E 009°09'0 0.0
2014-Aug-14 01:29N 53°53' E 009°09'0 0.0
2014-Aug-14 00:32N 53°53' E 009°09'0 0.0
2014-Aug-13 23:32N 53°53' E 009°09'1 1.1
2014-Aug-13 22:32N 53°54' E 009°09'1 1.0
2014-Aug-13 21:34N 53°54' E 009°10'8 8.4
2014-Aug-13 20:34N 54°01' E 009°18'9 8.3
2014-Aug-13 19:31N 54°09' E 009°23'8 8.5
2014-Aug-13 18:33N 54°13' E 009°35'  
Track history (hours):
 
Tides and Currents Weather Stations Pressure Air Temp Water Temp Dewpoint Dewpoint Depression Visibility Wind Speed Wind Dir Waves Ship Positions

Schillplate

Last reported at 2014-Aug-21 19:29 UTC. Time now 2014-Aug-21 20:05 UTC.
Position N 57°03' E 010°03'.

Length 86 m; draft 3.9 m.

Type: Cargo ship. MMSI: 236111603.

Date/timePositionNaut miles runAvg speedWind from/ knotsBaromVisibWave heightAir tempDewpointWater temp
2014-Aug-21 19:29N 57°03' E 010°03'0 0.0
2014-Aug-21 18:32N 57°03' E 010°03'0 0.0
2014-Aug-21 17:32N 57°03' E 010°03'0 0.0
2014-Aug-21 16:34N 57°03' E 010°03'5 5.3
2014-Aug-21 15:33N 57°00' E 010°10'168 7.8
2014-Aug-20 18:11N 54°14' E 009°36'6 8.3
2014-Aug-20 17:24N 54°10' E 009°27'6 7.5
2014-Aug-20 16:33N 54°06' E 009°20'8 8.4
2014-Aug-20 15:33N 53°58' E 009°15'5 4.7
2014-Aug-20 14:33N 53°54' E 009°10'0 0.0
2014-Aug-20 13:33N 53°54' E 009°10'0 0.0
2014-Aug-20 12:33N 53°54' E 009°09'0 0.0
2014-Aug-20 11:30N 53°54' E 009°10'0 0.0
2014-Aug-20 10:33N 53°54' E 009°09'0 0.0
2014-Aug-20 09:33N 53°54' E 009°09'0 0.0
2014-Aug-20 08:33N 53°54' E 009°09'0 0.0
2014-Aug-20 07:33N 53°54' E 009°10'0 0.0
2014-Aug-20 06:33N 53°54' E 009°09'0 0.0
2014-Aug-20 05:33N 53°54' E 009°09'0 0.0
2014-Aug-20 04:33N 53°54' E 009°10'0 0.0
2014-Aug-20 03:33N 53°54' E 009°09'0 0.0
2014-Aug-20 02:33N 53°54' E 009°09'0 0.0
2014-Aug-20 01:30N 53°54' E 009°10'0 0.0
2014-Aug-20 00:30N 53°54' E 009°10'0 0.0
2014-Aug-19 23:30N 53°54' E 009°10'0 0.0
2014-Aug-19 22:30N 53°54' E 009°10'0 0.0
2014-Aug-19 21:33N 53°54' E 009°10'0 0.0
2014-Aug-19 20:33N 53°54' E 009°10'0 0.0
2014-Aug-19 19:33N 53°54' E 009°10'0 0.0
2014-Aug-19 18:33N 53°54' E 009°10'0 0.0
2014-Aug-19 17:33N 53°54' E 009°09'0 0.0
2014-Aug-19 16:33N 53°54' E 009°10'1 0.8
2014-Aug-19 15:33N 53°54' E 009°09'2 2.4
2014-Aug-19 14:33N 53°53' E 009°05'2 2.1
2014-Aug-19 13:34N 53°52' E 009°02'7 6.7
2014-Aug-19 12:33N 53°50' E 008°51'6 6.1
2014-Aug-19 11:33N 53°53' E 008°42'6 6.2
2014-Aug-19 10:32N 53°58' E 008°34'3 2.9
2014-Aug-19 09:33N 53°58' E 008°29'0 0.0
2014-Aug-19 08:33N 53°58' E 008°29'0 0.1
2014-Aug-19 07:30N 53°58' E 008°29'0 0.1
2014-Aug-19 06:33N 53°58' E 008°30'0 0.0
2014-Aug-19 05:33N 53°58' E 008°30'0 0.0
2014-Aug-19 04:18N 53°58' E 008°30'0 0.0
2014-Aug-19 03:27N 53°58' E 008°30'0 0.0
2014-Aug-19 02:21N 53°58' E 008°30'2 2.2
2014-Aug-19 01:33N 53°59' E 008°27'7 7.3
2014-Aug-19 00:32N 54°04' E 008°18'5 5.2
2014-Aug-18 23:31N 54°09' E 008°21'0 0.1
2014-Aug-18 22:27N 54°09' E 008°21'6 6.7
2014-Aug-18 21:33N 54°14' E 008°25'0 0.2
2014-Aug-18 20:33N 54°15' E 008°25'3 2.8
2014-Aug-18 19:33N 54°17' E 008°27'7 7.1
2014-Aug-18 18:33N 54°24' E 008°31'  
2014-Aug-14 10:33N 54°26' E 008°37'1211.5
2014-Aug-14 09:33N 54°18' E 008°23'1211.8
2014-Aug-14 08:33N 54°07' E 008°17'10 9.8
2014-Aug-14 07:33N 53°59' E 008°27'1313.5
2014-Aug-14 06:34N 53°51' E 008°45'1313.4
2014-Aug-14 05:33N 53°53' E 009°08'1 0.8
2014-Aug-14 04:26N 53°53' E 009°09'0 0.0
2014-Aug-14 03:32N 53°53' E 009°09'0 0.0
2014-Aug-14 02:29N 53°53' E 009°09'0 0.0
2014-Aug-14 01:29N 53°53' E 009°09'0 0.0
2014-Aug-14 00:32N 53°53' E 009°09'0 0.0
2014-Aug-13 23:32N 53°53' E 009°09'1 1.1
2014-Aug-13 22:32N 53°54' E 009°09'1 1.0
2014-Aug-13 21:34N 53°54' E 009°10'8 8.4
2014-Aug-13 20:34N 54°01' E 009°18'9 8.3
2014-Aug-13 19:31N 54°09' E 009°23'8 8.5
2014-Aug-13 18:33N 54°13' E 009°35'  

Dump ship's entire track history